Appleton, Colorado
Current Conditions -  °F | °C
As of 9:53 PM on Thursday 30 Oct 2014 (Local Time) from KGJT Reporting Station
Clear Clear  
Wind Chill: 45°   Ceiling: Unl
Heat Index: 48°   Visibility: 10mi
Dew Point: 25°   Wind: 6mph
Humidity: 41%   Direction: 110°ESE
Pressure: 30.22"   Gusts: NA
Location:  39.1857°N, 108.6°W
Report Text: KGJT 310353Z 11005KT 10SM CLR 09/M04 A3022 RMK AO2 SLP211 T00891039
Loading
Personal Weather Stations






























Interactive Weather Map
Tropical Storm Tracking
New forecast layout! Learn more

10-Day Weather Forecast

Advertisements
Track Severe Weather on mobile